sensor_id;sensor_type;location;lat;lon;timestamp;P1;durP1;ratioP1;P2;durP2;ratioP2
19645;SDS011;9971;52.446;13.452;2022-12-10T00:03:08;0.80;;;0.80;;
19645;SDS011;9971;52.446;13.452;2022-12-10T00:08:10;0.90;;;0.90;;
19645;SDS011;9971;52.446;13.452;2022-12-10T00:13:13;1.00;;;1.00;;
19645;SDS011;9971;52.446;13.452;2022-12-10T00:18:16;0.95;;;0.95;;
19645;SDS011;9971;52.446;13.452;2022-12-10T00:23:18;0.90;;;0.90;;
19645;SDS011;9971;52.446;13.452;2022-12-10T00:28:21;0.70;;;0.70;;
19645;SDS011;9971;52.446;13.452;2022-12-10T00:33:23;0.90;;;0.90;;
19645;SDS011;9971;52.446;13.452;2022-12-10T00:38:26;0.90;;;0.90;;
19645;SDS011;9971;52.446;13.452;2022-12-10T00:43:28;0.85;;;0.85;;
19645;SDS011;9971;52.446;13.452;2022-12-10T00:48:30;0.70;;;0.70;;
19645;SDS011;9971;52.446;13.452;2022-12-10T00:53:33;0.90;;;0.90;;
19645;SDS011;9971;52.446;13.452;2022-12-10T00:58:34;0.90;;;0.90;;
19645;SDS011;9971;52.446;13.452;2022-12-10T01:03:36;0.53;;;0.53;;
19645;SDS011;9971;52.446;13.452;2022-12-10T01:08:39;0.78;;;0.78;;
19645;SDS011;9971;52.446;13.452;2022-12-10T01:13:41;0.90;;;0.90;;
19645;SDS011;9971;52.446;13.452;2022-12-10T01:18:43;0.70;;;0.70;;
19645;SDS011;9971;52.446;13.452;2022-12-10T01:23:46;0.60;;;0.60;;
19645;SDS011;9971;52.446;13.452;2022-12-10T01:28:48;0.60;;;0.60;;
19645;SDS011;9971;52.446;13.452;2022-12-10T01:33:50;0.63;;;0.63;;
19645;SDS011;9971;52.446;13.452;2022-12-10T01:38:52;1.07;;;1.07;;
19645;SDS011;9971;52.446;13.452;2022-12-10T01:43:56;0.70;;;0.70;;
19645;SDS011;9971;52.446;13.452;2022-12-10T01:48:57;0.75;;;0.75;;
19645;SDS011;9971;52.446;13.452;2022-12-10T01:53:59;0.60;;;0.60;;
19645;SDS011;9971;52.446;13.452;2022-12-10T01:59:01;0.70;;;0.70;;
19645;SDS011;9971;52.446;13.452;2022-12-10T02:04:14;0.70;;;0.70;;
19645;SDS011;9971;52.446;13.452;2022-12-10T02:09:19;0.73;;;0.73;;
19645;SDS011;9971;52.446;13.452;2022-12-10T02:14:29;0.70;;;0.70;;
19645;SDS011;9971;52.446;13.452;2022-12-10T02:24:39;0.70;;;0.70;;
19645;SDS011;9971;52.446;13.452;2022-12-10T02:29:41;0.80;;;0.80;;
19645;SDS011;9971;52.446;13.452;2022-12-10T02:34:45;0.50;;;0.50;;
19645;SDS011;9971;52.446;13.452;2022-12-10T02:39:46;0.60;;;0.60;;
19645;SDS011;9971;52.446;13.452;2022-12-10T02:44:47;0.70;;;0.70;;
19645;SDS011;9971;52.446;13.452;2022-12-10T02:49:50;0.47;;;0.47;;
19645;SDS011;9971;52.446;13.452;2022-12-10T02:54:53;0.60;;;0.60;;
19645;SDS011;9971;52.446;13.452;2022-12-10T03:00:00;0.63;;;0.63;;
19645;SDS011;9971;52.446;13.452;2022-12-10T03:05:06;0.50;;;0.50;;
19645;SDS011;9971;52.446;13.452;2022-12-10T03:10:11;0.63;;;0.63;;
19645;SDS011;9971;52.446;13.452;2022-12-10T03:15:20;0.67;;;0.67;;
19645;SDS011;9971;52.446;13.452;2022-12-10T03:20:23;0.50;;;0.50;;
19645;SDS011;9971;52.446;13.452;2022-12-10T03:25:26;0.63;;;0.63;;
19645;SDS011;9971;52.446;13.452;2022-12-10T03:30:28;0.60;;;0.60;;
19645;SDS011;9971;52.446;13.452;2022-12-10T03:35:29;0.70;;;0.70;;
19645;SDS011;9971;52.446;13.452;2022-12-10T03:40:31;0.40;;;0.40;;
19645;SDS011;9971;52.446;13.452;2022-12-10T03:45:33;0.57;;;0.57;;
19645;SDS011;9971;52.446;13.452;2022-12-10T03:50:36;0.37;;;0.37;;
19645;SDS011;9971;52.446;13.452;2022-12-10T03:55:38;0.50;;;0.50;;
19645;SDS011;9971;52.446;13.452;2022-12-10T04:00:41;0.60;;;0.60;;
19645;SDS011;9971;52.446;13.452;2022-12-10T04:05:43;0.50;;;0.50;;
19645;SDS011;9971;52.446;13.452;2022-12-10T04:10:46;0.60;;;0.60;;
19645;SDS011;9971;52.446;13.452;2022-12-10T04:15:48;0.35;;;0.35;;
19645;SDS011;9971;52.446;13.452;2022-12-10T04:20:56;0.50;;;0.50;;
19645;SDS011;9971;52.446;13.452;2022-12-10T04:26:05;0.50;;;0.50;;
19645;SDS011;9971;52.446;13.452;2022-12-10T04:31:12;0.50;;;0.50;;
19645;SDS011;9971;52.446;13.452;2022-12-10T04:36:14;0.53;;;0.53;;
19645;SDS011;9971;52.446;13.452;2022-12-10T04:41:17;0.60;;;0.60;;
19645;SDS011;9971;52.446;13.452;2022-12-10T04:46:19;0.53;;;0.53;;
19645;SDS011;9971;52.446;13.452;2022-12-10T04:51:21;0.53;;;0.53;;
19645;SDS011;9971;52.446;13.452;2022-12-10T04:56:23;0.55;;;0.55;;
19645;SDS011;9971;52.446;13.452;2022-12-10T05:01:30;0.47;;;0.47;;
19645;SDS011;9971;52.446;13.452;2022-12-10T05:06:32;0.42;;;0.42;;
19645;SDS011;9971;52.446;13.452;2022-12-10T05:11:34;0.47;;;0.47;;
19645;SDS011;9971;52.446;13.452;2022-12-10T05:16:36;0.40;;;0.40;;
19645;SDS011;9971;52.446;13.452;2022-12-10T05:21:38;0.60;;;0.60;;
19645;SDS011;9971;52.446;13.452;2022-12-10T05:26:46;0.50;;;0.50;;
19645;SDS011;9971;52.446;13.452;2022-12-10T05:31:48;0.42;;;0.42;;
19645;SDS011;9971;52.446;13.452;2022-12-10T05:36:51;0.40;;;0.40;;
19645;SDS011;9971;52.446;13.452;2022-12-10T05:41:53;0.62;;;0.62;;
19645;SDS011;9971;52.446;13.452;2022-12-10T05:46:56;0.40;;;0.40;;
19645;SDS011;9971;52.446;13.452;2022-12-10T05:51:58;0.62;;;0.62;;
19645;SDS011;9971;52.446;13.452;2022-12-10T05:57:01;0.37;;;0.37;;
19645;SDS011;9971;52.446;13.452;2022-12-10T06:02:03;0.53;;;0.53;;
19645;SDS011;9971;52.446;13.452;2022-12-10T06:07:06;0.40;;;0.40;;
19645;SDS011;9971;52.446;13.452;2022-12-10T06:12:08;0.40;;;0.40;;
19645;SDS011;9971;52.446;13.452;2022-12-10T06:17:11;0.50;;;0.50;;
19645;SDS011;9971;52.446;13.452;2022-12-10T06:22:13;0.40;;;0.40;;
19645;SDS011;9971;52.446;13.452;2022-12-10T06:27:16;0.75;;;0.75;;
19645;SDS011;9971;52.446;13.452;2022-12-10T06:32:18;0.80;;;0.80;;
19645;SDS011;9971;52.446;13.452;2022-12-10T06:37:21;0.47;;;0.47;;
19645;SDS011;9971;52.446;13.452;2022-12-10T06:42:23;0.60;;;0.60;;
19645;SDS011;9971;52.446;13.452;2022-12-10T06:47:26;0.40;;;0.40;;
19645;SDS011;9971;52.446;13.452;2022-12-10T06:52:28;0.60;;;0.60;;
19645;SDS011;9971;52.446;13.452;2022-12-10T06:57:31;0.60;;;0.60;;
19645;SDS011;9971;52.446;13.452;2022-12-10T07:02:33;0.72;;;0.72;;
19645;SDS011;9971;52.446;13.452;2022-12-10T07:07:36;0.57;;;0.57;;
19645;SDS011;9971;52.446;13.452;2022-12-10T07:12:38;0.70;;;0.70;;
19645;SDS011;9971;52.446;13.452;2022-12-10T07:17:41;0.60;;;0.60;;
19645;SDS011;9971;52.446;13.452;2022-12-10T07:22:43;0.70;;;0.70;;
19645;SDS011;9971;52.446;13.452;2022-12-10T07:27:46;0.50;;;0.50;;
19645;SDS011;9971;52.446;13.452;2022-12-10T07:32:48;0.82;;;0.82;;
19645;SDS011;9971;52.446;13.452;2022-12-10T07:37:51;0.70;;;0.70;;
19645;SDS011;9971;52.446;13.452;2022-12-10T07:42:53;0.80;;;0.80;;
19645;SDS011;9971;52.446;13.452;2022-12-10T07:47:56;0.80;;;0.80;;
19645;SDS011;9971;52.446;13.452;2022-12-10T07:52:58;0.70;;;0.70;;
19645;SDS011;9971;52.446;13.452;2022-12-10T07:58:00;0.70;;;0.70;;
19645;SDS011;9971;52.446;13.452;2022-12-10T08:03:03;0.57;;;0.57;;
19645;SDS011;9971;52.446;13.452;2022-12-10T08:08:05;0.68;;;0.68;;
19645;SDS011;9971;52.446;13.452;2022-12-10T08:13:08;0.90;;;0.90;;
19645;SDS011;9971;52.446;13.452;2022-12-10T08:18:10;0.60;;;0.60;;
19645;SDS011;9971;52.446;13.452;2022-12-10T08:23:13;0.90;;;0.90;;
19645;SDS011;9971;52.446;13.452;2022-12-10T08:28:15;0.85;;;0.85;;
19645;SDS011;9971;52.446;13.452;2022-12-10T08:33:18;1.20;;;1.07;;
19645;SDS011;9971;52.446;13.452;2022-12-10T08:38:20;0.82;;;0.82;;
19645;SDS011;9971;52.446;13.452;2022-12-10T08:43:23;1.00;;;1.00;;
19645;SDS011;9971;52.446;13.452;2022-12-10T08:48:25;0.93;;;0.90;;
19645;SDS011;9971;52.446;13.452;2022-12-10T08:53:27;0.72;;;0.72;;
19645;SDS011;9971;52.446;13.452;2022-12-10T08:58:29;1.47;;;1.37;;
19645;SDS011;9971;52.446;13.452;2022-12-10T09:03:32;1.52;;;1.42;;
19645;SDS011;9971;52.446;13.452;2022-12-10T09:08:34;1.40;;;1.30;;
19645;SDS011;9971;52.446;13.452;2022-12-10T09:13:36;1.63;;;1.53;;
19645;SDS011;9971;52.446;13.452;2022-12-10T09:18:39;1.22;;;1.22;;
19645;SDS011;9971;52.446;13.452;2022-12-10T09:23:42;1.70;;;1.60;;
19645;SDS011;9971;52.446;13.452;2022-12-10T09:28:44;1.40;;;1.30;;
19645;SDS011;9971;52.446;13.452;2022-12-10T09:33:46;1.30;;;1.20;;
19645;SDS011;9971;52.446;13.452;2022-12-10T09:38:48;1.33;;;1.23;;
19645;SDS011;9971;52.446;13.452;2022-12-10T09:43:51;1.30;;;1.20;;
19645;SDS011;9971;52.446;13.452;2022-12-10T09:49:07;1.67;;;1.57;;
19645;SDS011;9971;52.446;13.452;2022-12-10T09:54:22;1.30;;;1.20;;
19645;SDS011;9971;52.446;13.452;2022-12-10T09:59:28;1.27;;;1.17;;
19645;SDS011;9971;52.446;13.452;2022-12-10T10:04:32;1.40;;;1.30;;
19645;SDS011;9971;52.446;13.452;2022-12-10T10:09:35;1.30;;;1.20;;
19645;SDS011;9971;52.446;13.452;2022-12-10T10:14:36;1.23;;;1.13;;
19645;SDS011;9971;52.446;13.452;2022-12-10T10:19:38;1.40;;;1.30;;
19645;SDS011;9971;52.446;13.452;2022-12-10T10:24:41;0.88;;;0.88;;
19645;SDS011;9971;52.446;13.452;2022-12-10T10:29:43;1.23;;;1.20;;
19645;SDS011;9971;52.446;13.452;2022-12-10T10:34:45;1.30;;;1.20;;
19645;SDS011;9971;52.446;13.452;2022-12-10T10:39:48;1.53;;;1.43;;
19645;SDS011;9971;52.446;13.452;2022-12-10T10:44:49;1.30;;;1.20;;
19645;SDS011;9971;52.446;13.452;2022-12-10T10:49:51;1.13;;;1.10;;
19645;SDS011;9971;52.446;13.452;2022-12-10T10:54:53;1.35;;;1.27;;
19645;SDS011;9971;52.446;13.452;2022-12-10T11:00:00;1.40;;;1.35;;
19645;SDS011;9971;52.446;13.452;2022-12-10T11:05:03;1.00;;;1.00;;
19645;SDS011;9971;52.446;13.452;2022-12-10T11:10:00;7.50;;;6.97;;
19645;SDS011;9971;52.446;13.452;2022-12-10T11:15:24;9.80;;;8.93;;
19645;SDS011;9971;52.446;13.452;2022-12-10T11:25:17;11.53;;;10.43;;
19645;SDS011;9971;52.446;13.452;2022-12-10T11:30:20;12.57;;;11.27;;
19645;SDS011;9971;52.446;13.452;2022-12-10T11:35:33;12.23;;;10.90;;
19645;SDS011;9971;52.446;13.452;2022-12-10T11:40:47;11.80;;;10.70;;
19645;SDS011;9971;52.446;13.452;2022-12-10T11:46:26;11.53;;;10.43;;
19645;SDS011;9971;52.446;13.452;2022-12-10T11:51:34;12.20;;;10.93;;
19645;SDS011;9971;52.446;13.452;2022-12-10T11:56:34;12.77;;;11.47;;
19645;SDS011;9971;52.446;13.452;2022-12-10T12:01:42;12.10;;;10.90;;
19645;SDS011;9971;52.446;13.452;2022-12-10T12:06:49;11.22;;;9.48;;
19645;SDS011;9971;52.446;13.452;2022-12-10T12:11:55;6.08;;;4.50;;
19645;SDS011;9971;52.446;13.452;2022-12-10T12:17:02;1.20;;;1.20;;
19645;SDS011;9971;52.446;13.452;2022-12-10T12:22:23;1.10;;;1.00;;
19645;SDS011;9971;52.446;13.452;2022-12-10T12:27:30;0.80;;;0.80;;
19645;SDS011;9971;52.446;13.452;2022-12-10T12:32:32;1.03;;;0.97;;
19645;SDS011;9971;52.446;13.452;2022-12-10T12:37:38;1.32;;;1.20;;
19645;SDS011;9971;52.446;13.452;2022-12-10T12:42:46;0.80;;;0.80;;
19645;SDS011;9971;52.446;13.452;2022-12-10T12:48:01;1.17;;;1.10;;
19645;SDS011;9971;52.446;13.452;2022-12-10T12:53:04;0.90;;;0.90;;
19645;SDS011;9971;52.446;13.452;2022-12-10T12:58:15;1.20;;;1.10;;
19645;SDS011;9971;52.446;13.452;2022-12-10T13:03:23;0.87;;;0.87;;
19645;SDS011;9971;52.446;13.452;2022-12-10T13:08:44;1.02;;;1.00;;
19645;SDS011;9971;52.446;13.452;2022-12-10T13:19:15;1.03;;;0.93;;
19645;SDS011;9971;52.446;13.452;2022-12-10T13:24:07;1.60;;;1.37;;
19645;SDS011;9971;52.446;13.452;2022-12-10T13:29:13;1.00;;;1.00;;
19645;SDS011;9971;52.446;13.452;2022-12-10T13:34:20;1.02;;;1.02;;
19645;SDS011;9971;52.446;13.452;2022-12-10T13:39:22;1.67;;;1.03;;
19645;SDS011;9971;52.446;13.452;2022-12-10T13:44:34;1.00;;;1.00;;
19645;SDS011;9971;52.446;13.452;2022-12-10T13:49:35;0.87;;;0.87;;
19645;SDS011;9971;52.446;13.452;2022-12-10T13:54:41;0.87;;;0.87;;
19645;SDS011;9971;52.446;13.452;2022-12-10T14:00:00;1.50;;;1.40;;
19645;SDS011;9971;52.446;13.452;2022-12-10T14:10:31;1.00;;;1.00;;
19645;SDS011;9971;52.446;13.452;2022-12-10T14:15:34;1.15;;;1.07;;
19645;SDS011;9971;52.446;13.452;2022-12-10T14:20:35;1.07;;;1.07;;
19645;SDS011;9971;52.446;13.452;2022-12-10T14:25:41;1.43;;;1.10;;
19645;SDS011;9971;52.446;13.452;2022-12-10T14:30:42;0.83;;;0.83;;
19645;SDS011;9971;52.446;13.452;2022-12-10T14:35:47;0.93;;;0.93;;
19645;SDS011;9971;52.446;13.452;2022-12-10T14:40:49;0.93;;;0.93;;
19645;SDS011;9971;52.446;13.452;2022-12-10T14:45:52;0.95;;;0.95;;
19645;SDS011;9971;52.446;13.452;2022-12-10T14:50:56;0.60;;;0.60;;
19645;SDS011;9971;52.446;13.452;2022-12-10T14:55:57;0.97;;;0.93;;
19645;SDS011;9971;52.446;13.452;2022-12-10T15:00:58;0.67;;;0.67;;
19645;SDS011;9971;52.446;13.452;2022-12-10T15:06:01;1.00;;;1.00;;
19645;SDS011;9971;52.446;13.452;2022-12-10T15:11:02;1.03;;;0.97;;
19645;SDS011;9971;52.446;13.452;2022-12-10T15:16:05;0.80;;;0.80;;
19645;SDS011;9971;52.446;13.452;2022-12-10T15:21:11;1.23;;;1.13;;
19645;SDS011;9971;52.446;13.452;2022-12-10T15:26:17;0.60;;;0.60;;
19645;SDS011;9971;52.446;13.452;2022-12-10T15:31:21;0.78;;;0.78;;
19645;SDS011;9971;52.446;13.452;2022-12-10T15:36:37;0.90;;;0.90;;
19645;SDS011;9971;52.446;13.452;2022-12-10T15:41:57;0.97;;;0.90;;
19645;SDS011;9971;52.446;13.452;2022-12-10T15:47:01;0.83;;;0.83;;
19645;SDS011;9971;52.446;13.452;2022-12-10T15:52:03;0.80;;;0.80;;
19645;SDS011;9971;52.446;13.452;2022-12-10T15:57:11;0.93;;;0.93;;
19645;SDS011;9971;52.446;13.452;2022-12-10T16:02:21;0.80;;;0.80;;
19645;SDS011;9971;52.446;13.452;2022-12-10T16:07:22;0.70;;;0.70;;
19645;SDS011;9971;52.446;13.452;2022-12-10T16:12:24;0.60;;;0.60;;
19645;SDS011;9971;52.446;13.452;2022-12-10T16:17:27;0.80;;;0.80;;
19645;SDS011;9971;52.446;13.452;2022-12-10T16:22:29;0.80;;;0.80;;
19645;SDS011;9971;52.446;13.452;2022-12-10T16:27:32;0.95;;;0.95;;
19645;SDS011;9971;52.446;13.452;2022-12-10T16:32:34;0.72;;;0.72;;
19645;SDS011;9971;52.446;13.452;2022-12-10T16:37:36;0.62;;;0.62;;
19645;SDS011;9971;52.446;13.452;2022-12-10T16:42:39;0.80;;;0.80;;
19645;SDS011;9971;52.446;13.452;2022-12-10T16:47:42;0.70;;;0.70;;
19645;SDS011;9971;52.446;13.452;2022-12-10T16:52:43;0.83;;;0.83;;
19645;SDS011;9971;52.446;13.452;2022-12-10T16:57:46;0.80;;;0.80;;
19645;SDS011;9971;52.446;13.452;2022-12-10T17:02:48;0.80;;;0.80;;
19645;SDS011;9971;52.446;13.452;2022-12-10T17:07:50;0.80;;;0.80;;
19645;SDS011;9971;52.446;13.452;2022-12-10T17:12:52;0.70;;;0.70;;
19645;SDS011;9971;52.446;13.452;2022-12-10T17:17:55;0.70;;;0.70;;
19645;SDS011;9971;52.446;13.452;2022-12-10T17:22:57;0.80;;;0.80;;
19645;SDS011;9971;52.446;13.452;2022-12-10T17:28:00;0.50;;;0.50;;
19645;SDS011;9971;52.446;13.452;2022-12-10T17:33:02;0.95;;;0.90;;
19645;SDS011;9971;52.446;13.452;2022-12-10T17:38:05;0.80;;;0.80;;
19645;SDS011;9971;52.446;13.452;2022-12-10T17:43:07;0.77;;;0.77;;
19645;SDS011;9971;52.446;13.452;2022-12-10T17:48:11;0.70;;;0.70;;
19645;SDS011;9971;52.446;13.452;2022-12-10T17:53:13;0.68;;;0.68;;
19645;SDS011;9971;52.446;13.452;2022-12-10T17:58:15;0.75;;;0.75;;
19645;SDS011;9971;52.446;13.452;2022-12-10T18:03:17;0.80;;;0.80;;
19645;SDS011;9971;52.446;13.452;2022-12-10T18:08:19;0.80;;;0.80;;
19645;SDS011;9971;52.446;13.452;2022-12-10T18:13:22;0.90;;;0.90;;
19645;SDS011;9971;52.446;13.452;2022-12-10T18:18:24;0.97;;;0.97;;
19645;SDS011;9971;52.446;13.452;2022-12-10T18:23:26;0.82;;;0.82;;
19645;SDS011;9971;52.446;13.452;2022-12-10T18:28:46;0.70;;;0.70;;
19645;SDS011;9971;52.446;13.452;2022-12-10T18:33:46;2.03;;;1.50;;
19645;SDS011;9971;52.446;13.452;2022-12-10T18:38:48;0.73;;;0.73;;
19645;SDS011;9971;52.446;13.452;2022-12-10T18:43:50;0.70;;;0.70;;
19645;SDS011;9971;52.446;13.452;2022-12-10T18:48:52;0.90;;;0.90;;
19645;SDS011;9971;52.446;13.452;2022-12-10T18:53:55;2.83;;;2.60;;
19645;SDS011;9971;52.446;13.452;2022-12-10T18:58:58;1.10;;;0.97;;
19645;SDS011;9971;52.446;13.452;2022-12-10T19:04:00;0.87;;;0.87;;
19645;SDS011;9971;52.446;13.452;2022-12-10T19:09:02;0.78;;;0.78;;
19645;SDS011;9971;52.446;13.452;2022-12-10T19:14:04;0.80;;;0.80;;
19645;SDS011;9971;52.446;13.452;2022-12-10T19:19:08;0.93;;;0.93;;
19645;SDS011;9971;52.446;13.452;2022-12-10T19:24:08;1.17;;;1.07;;
19645;SDS011;9971;52.446;13.452;2022-12-10T19:29:16;0.97;;;0.97;;
19645;SDS011;9971;52.446;13.452;2022-12-10T19:34:17;0.80;;;0.80;;
19645;SDS011;9971;52.446;13.452;2022-12-10T19:39:20;1.00;;;1.00;;
19645;SDS011;9971;52.446;13.452;2022-12-10T19:44:22;0.70;;;0.70;;
19645;SDS011;9971;52.446;13.452;2022-12-10T19:49:24;1.30;;;1.20;;
19645;SDS011;9971;52.446;13.452;2022-12-10T19:54:27;0.83;;;0.83;;
19645;SDS011;9971;52.446;13.452;2022-12-10T19:59:29;1.17;;;1.10;;
19645;SDS011;9971;52.446;13.452;2022-12-10T20:04:32;5.92;;;4.30;;
19645;SDS011;9971;52.446;13.452;2022-12-10T20:09:34;1.22;;;1.10;;
19645;SDS011;9971;52.446;13.452;2022-12-10T20:14:37;1.52;;;1.40;;
19645;SDS011;9971;52.446;13.452;2022-12-10T20:19:39;1.15;;;1.05;;
19645;SDS011;9971;52.446;13.452;2022-12-10T20:24:41;6.00;;;4.70;;
19645;SDS011;9971;52.446;13.452;2022-12-10T20:29:44;6.15;;;5.15;;
19645;SDS011;9971;52.446;13.452;2022-12-10T20:34:46;2.40;;;2.20;;
19645;SDS011;9971;52.446;13.452;2022-12-10T20:39:49;2.65;;;2.45;;
19645;SDS011;9971;52.446;13.452;2022-12-10T20:44:51;0.90;;;0.90;;
19645;SDS011;9971;52.446;13.452;2022-12-10T20:49:54;2.62;;;2.27;;
19645;SDS011;9971;52.446;13.452;2022-12-10T20:54:56;3.95;;;3.60;;
19645;SDS011;9971;52.446;13.452;2022-12-10T20:59:58;1.35;;;1.25;;
19645;SDS011;9971;52.446;13.452;2022-12-10T21:05:01;8.23;;;7.00;;
19645;SDS011;9971;52.446;13.452;2022-12-10T21:10:04;5.60;;;4.78;;
19645;SDS011;9971;52.446;13.452;2022-12-10T21:15:06;4.03;;;3.63;;
19645;SDS011;9971;52.446;13.452;2022-12-10T21:20:10;9.17;;;7.53;;
19645;SDS011;9971;52.446;13.452;2022-12-10T21:25:14;9.50;;;8.10;;
19645;SDS011;9971;52.446;13.452;2022-12-10T21:30:17;8.15;;;7.35;;
19645;SDS011;9971;52.446;13.452;2022-12-10T21:35:19;7.13;;;5.10;;
19645;SDS011;9971;52.446;13.452;2022-12-10T21:40:21;5.85;;;5.17;;
19645;SDS011;9971;52.446;13.452;2022-12-10T21:45:26;5.37;;;4.87;;
19645;SDS011;9971;52.446;13.452;2022-12-10T21:50:27;3.20;;;2.90;;
19645;SDS011;9971;52.446;13.452;2022-12-10T21:55:29;2.83;;;2.37;;
19645;SDS011;9971;52.446;13.452;2022-12-10T22:00:31;4.28;;;3.87;;
19645;SDS011;9971;52.446;13.452;2022-12-10T22:05:34;11.73;;;7.72;;
19645;SDS011;9971;52.446;13.452;2022-12-10T22:10:36;8.53;;;7.63;;
19645;SDS011;9971;52.446;13.452;2022-12-10T22:15:39;11.28;;;9.48;;
19645;SDS011;9971;52.446;13.452;2022-12-10T22:20:40;9.47;;;6.63;;
19645;SDS011;9971;52.446;13.452;2022-12-10T22:25:42;6.00;;;5.20;;
19645;SDS011;9971;52.446;13.452;2022-12-10T22:30:45;4.85;;;4.40;;
19645;SDS011;9971;52.446;13.452;2022-12-10T22:35:47;3.50;;;3.20;;
19645;SDS011;9971;52.446;13.452;2022-12-10T22:40:49;1.90;;;1.70;;
19645;SDS011;9971;52.446;13.452;2022-12-10T22:45:52;5.35;;;3.65;;
19645;SDS011;9971;52.446;13.452;2022-12-10T22:51:00;2.72;;;2.42;;
19645;SDS011;9971;52.446;13.452;2022-12-10T22:56:03;6.60;;;5.70;;
19645;SDS011;9971;52.446;13.452;2022-12-10T23:01:04;4.10;;;3.70;;
19645;SDS011;9971;52.446;13.452;2022-12-10T23:06:06;4.37;;;3.98;;
19645;SDS011;9971;52.446;13.452;2022-12-10T23:11:09;2.92;;;2.72;;
19645;SDS011;9971;52.446;13.452;2022-12-10T23:16:12;2.93;;;2.63;;
19645;SDS011;9971;52.446;13.452;2022-12-10T23:21:15;2.60;;;2.40;;
19645;SDS011;9971;52.446;13.452;2022-12-10T23:26:17;1.70;;;1.60;;
19645;SDS011;9971;52.446;13.452;2022-12-10T23:31:19;0.90;;;0.90;;
19645;SDS011;9971;52.446;13.452;2022-12-10T23:36:21;0.95;;;0.95;;
19645;SDS011;9971;52.446;13.452;2022-12-10T23:41:24;2.40;;;2.20;;
19645;SDS011;9971;52.446;13.452;2022-12-10T23:46:26;4.20;;;3.80;;
19645;SDS011;9971;52.446;13.452;2022-12-10T23:51:28;6.65;;;4.35;;
19645;SDS011;9971;52.446;13.452;2022-12-10T23:56:31;5.15;;;4.65;;
